createdAt,value
2022-08-07T00:02:37.222Z,28.88
2022-08-07T00:05:04.000Z,27.75
2022-08-07T00:07:40.153Z,29.45
2022-08-07T00:10:26.015Z,27.95
2022-08-07T00:13:00.708Z,27.55
2022-08-07T00:15:37.680Z,28.23
2022-08-07T00:18:19.339Z,26.77
2022-08-07T00:20:48.356Z,47.92
2022-08-07T00:23:17.218Z,37.45
2022-08-07T00:25:45.836Z,29.33
2022-08-07T00:28:21.978Z,28.90
2022-08-07T00:30:51.055Z,29.20
2022-08-07T00:33:18.476Z,29.77
2022-08-07T00:35:49.619Z,27.10
2022-08-07T00:38:31.177Z,26.05
2022-08-07T00:40:59.636Z,26.35
2022-08-07T00:44:01.340Z,32.00
2022-08-07T00:46:16.352Z,30.83
2022-08-07T00:48:43.728Z,26.52
2022-08-07T00:51:11.143Z,26.60
2022-08-07T00:53:50.768Z,30.30
2022-08-07T00:56:23.439Z,26.88
2022-08-07T00:58:58.781Z,31.85
2022-08-07T01:01:28.189Z,36.20
2022-08-07T01:04:09.223Z,47.30
2022-08-07T01:06:38.099Z,29.60
2022-08-07T01:09:06.626Z,30.90
2022-08-07T01:12:27.672Z,35.20
2022-08-07T01:14:28.435Z,27.35
2022-08-07T01:16:58.647Z,26.00
2022-08-07T01:19:32.437Z,25.25
2022-08-07T01:22:03.677Z,24.80
2022-08-07T01:24:41.841Z,36.03
2022-08-07T01:27:19.677Z,39.05
2022-08-07T01:29:57.606Z,29.60
2022-08-07T01:32:26.420Z,28.20
2022-08-07T01:34:55.727Z,28.95
2022-08-07T01:37:27.869Z,28.05
2022-08-07T01:39:59.452Z,28.20
2022-08-07T01:42:37.676Z,26.60
2022-08-07T01:45:17.850Z,24.13
2022-08-07T01:48:19.605Z,29.75
2022-08-07T01:50:40.319Z,23.25
2022-08-07T01:53:20.936Z,22.58
2022-08-07T01:55:58.904Z,27.10
2022-08-07T01:58:33.313Z,24.35
2022-08-07T02:01:09.984Z,22.35
2022-08-07T02:06:32.139Z,27.55
2022-08-07T02:09:52.087Z,33.13
2022-08-07T02:12:05.261Z,28.50
2022-08-07T02:14:40.782Z,27.17
2022-08-07T02:17:16.503Z,21.70
2022-08-07T02:20:07.750Z,25.20
2022-08-07T02:22:43.636Z,24.02
2022-08-07T02:25:18.090Z,25.08
2022-08-07T02:27:56.904Z,27.40
2022-08-07T02:30:25.804Z,27.27
2022-08-07T02:33:00.387Z,27.67
2022-08-07T02:36:30.097Z,27.05
2022-08-07T02:38:35.500Z,25.70
2022-08-07T02:41:07.922Z,25.33
2022-08-07T02:43:39.899Z,26.55
2022-08-07T02:46:10.901Z,26.15
2022-08-07T02:48:39.748Z,26.77
2022-08-07T02:51:42.685Z,25.05
2022-08-07T02:54:13.065Z,23.75
2022-08-07T02:56:46.661Z,23.23
2022-08-07T02:59:18.980Z,23.75
2022-08-07T03:01:55.184Z,26.50
2022-08-07T03:04:25.852Z,22.95
2022-08-07T03:06:55.053Z,21.70
2022-08-07T03:09:42.064Z,21.45
2022-08-07T03:12:21.916Z,21.50
2022-08-07T03:14:54.715Z,20.98
2022-08-07T03:17:23.101Z,21.15
2022-08-07T03:19:54.732Z,20.80
2022-08-07T03:22:30.190Z,20.45
2022-08-07T03:24:58.873Z,20.52
2022-08-07T03:27:30.647Z,20.95
2022-08-07T03:30:03.729Z,19.58
2022-08-07T03:32:37.052Z,20.65
2022-08-07T03:35:17.571Z,19.63
2022-08-07T03:37:53.760Z,26.20
2022-08-07T03:40:30.827Z,27.45
2022-08-07T03:43:02.214Z,22.00
2022-08-07T03:45:34.260Z,20.33
2022-08-07T03:48:11.890Z,20.65
2022-08-07T03:50:43.249Z,21.23
2022-08-07T03:53:30.324Z,21.95
2022-08-07T03:56:33.451Z,22.33
2022-08-07T03:59:12.943Z,18.48
2022-08-07T04:01:48.869Z,18.75
2022-08-07T04:04:21.580Z,18.35
2022-08-07T04:06:54.008Z,20.00
2022-08-07T04:09:24.145Z,19.02
2022-08-07T04:12:25.824Z,18.55
2022-08-07T04:14:49.158Z,18.55
2022-08-07T04:17:20.790Z,16.90
2022-08-07T04:19:52.440Z,18.67
2022-08-07T04:22:28.628Z,16.90
2022-08-07T04:25:01.953Z,19.80
2022-08-07T04:27:35.536Z,17.63
2022-08-07T04:30:21.356Z,20.75
2022-08-07T04:33:07.349Z,34.47
2022-08-07T04:35:37.394Z,37.83
2022-08-07T04:38:13.070Z,21.90
2022-08-07T04:40:52.992Z,18.77
2022-08-07T04:44:09.610Z,20.27
2022-08-07T04:46:34.881Z,19.58
2022-08-07T04:49:17.696Z,16.17
2022-08-07T04:51:54.762Z,18.30
2022-08-07T04:54:32.256Z,16.10
2022-08-07T04:58:15.262Z,18.10
2022-08-07T05:00:12.025Z,18.38
2022-08-07T05:02:57.101Z,16.75
2022-08-07T05:05:53.082Z,20.65
2022-08-07T05:09:00.213Z,17.30
2022-08-07T05:11:19.380Z,13.73
2022-08-07T05:14:55.524Z,15.52
2022-08-07T05:16:47.410Z,15.00
2022-08-07T05:19:32.703Z,15.07
2022-08-07T05:22:19.115Z,13.95
2022-08-07T05:25:00.392Z,15.43
2022-08-07T05:28:02.574Z,13.65
2022-08-07T05:30:30.345Z,12.80
2022-08-07T05:33:04.658Z,13.85
2022-08-07T05:35:42.041Z,13.13
2022-08-07T05:38:12.664Z,13.85
2022-08-07T05:41:01.558Z,12.10
2022-08-07T05:43:49.990Z,12.07
2022-08-07T05:46:29.832Z,11.50
2022-08-07T05:48:59.388Z,12.95
2022-08-07T05:51:33.332Z,11.88
2022-08-07T05:54:13.487Z,12.70
2022-08-07T05:56:56.631Z,12.60
2022-08-07T05:59:27.265Z,12.73
2022-08-07T06:02:01.995Z,13.43
2022-08-07T06:04:32.416Z,13.70
2022-08-07T06:07:03.803Z,12.88
2022-08-07T06:10:03.763Z,12.00
2022-08-07T06:12:27.973Z,13.07
2022-08-07T06:15:05.275Z,11.50
2022-08-07T06:17:37.545Z,11.15
2022-08-07T06:20:12.729Z,10.48
2022-08-07T06:23:02.066Z,10.60
2022-08-07T06:25:54.355Z,13.02
2022-08-07T06:28:27.766Z,10.50
2022-08-07T06:30:58.179Z,11.57
2022-08-07T06:33:29.693Z,9.90
2022-08-07T06:36:12.918Z,10.65
2022-08-07T06:38:59.290Z,9.15
2022-08-07T06:42:01.695Z,9.50
2022-08-07T06:45:04.674Z,10.60
2022-08-07T06:47:48.171Z,10.90
2022-08-07T06:50:20.417Z,10.50
2022-08-07T06:52:55.734Z,11.85
2022-08-07T06:55:47.539Z,10.75
2022-08-07T06:58:21.524Z,9.63
2022-08-07T07:01:00.979Z,12.50
2022-08-07T07:03:49.137Z,10.10
2022-08-07T07:06:24.029Z,11.48
2022-08-07T07:08:55.329Z,11.32
2022-08-07T07:12:08.835Z,11.30
2022-08-07T07:14:18.245Z,13.30
2022-08-07T07:16:53.607Z,10.70
2022-08-07T07:19:55.341Z,11.23
2022-08-07T07:22:36.236Z,11.85
2022-08-07T07:26:30.591Z,14.88
2022-08-07T07:28:02.604Z,12.18
2022-08-07T07:30:39.706Z,12.57
2022-08-07T07:33:11.805Z,11.68
2022-08-07T07:35:43.970Z,11.93
2022-08-07T07:38:31.308Z,10.80
2022-08-07T07:41:03.192Z,12.88
2022-08-07T07:43:47.892Z,13.25
2022-08-07T07:46:36.870Z,10.80
2022-08-07T07:50:33.398Z,11.10
2022-08-07T07:52:01.394Z,11.18
2022-08-07T07:54:31.892Z,11.40
2022-08-07T07:57:01.753Z,9.88
2022-08-07T07:59:52.813Z,11.55
2022-08-07T08:02:34.314Z,11.45
2022-08-07T08:05:05.405Z,9.60
2022-08-07T08:07:59.677Z,8.98
2022-08-07T08:10:35.487Z,10.18
2022-08-07T08:13:10.572Z,9.57
2022-08-07T08:15:58.357Z,9.70
2022-08-07T08:18:28.756Z,9.55
2022-08-07T08:21:00.736Z,9.95
2022-08-07T08:23:30.418Z,8.95
2022-08-07T08:26:06.914Z,9.05
2022-08-07T08:28:44.842Z,10.00
2022-08-07T08:31:58.428Z,9.25
2022-08-07T08:34:23.234Z,8.98
2022-08-07T08:36:58.348Z,8.82
2022-08-07T08:42:20.621Z,8.68
2022-08-07T08:45:04.252Z,9.93
2022-08-07T08:47:47.351Z,9.75
2022-08-07T08:50:35.040Z,9.33
2022-08-07T08:53:19.564Z,9.50
2022-08-07T08:55:55.211Z,10.55
2022-08-07T08:58:35.559Z,9.73
2022-08-07T09:01:14.817Z,10.30
2022-08-07T09:03:56.743Z,9.93
2022-08-07T09:06:37.683Z,10.95
2022-08-07T09:09:23.637Z,9.70
2022-08-07T09:12:30.573Z,12.05
2022-08-07T09:16:21.524Z,9.70
2022-08-07T09:18:15.715Z,10.15
2022-08-07T09:21:00.352Z,11.98
2022-08-07T09:24:32.114Z,10.57
2022-08-07T09:26:33.685Z,11.63
2022-08-07T09:30:06.063Z,10.70
2022-08-07T09:32:17.212Z,11.23
2022-08-07T09:34:55.136Z,9.90
2022-08-07T09:37:48.082Z,12.85
2022-08-07T09:40:28.821Z,13.10
2022-08-07T09:43:11.586Z,12.15
2022-08-07T09:47:25.852Z,11.80
2022-08-07T09:50:00.490Z,14.02
2022-08-07T09:52:16.701Z,14.25
2022-08-07T09:55:02.055Z,14.38
2022-08-07T09:58:07.653Z,14.05
2022-08-07T10:00:50.971Z,14.63
2022-08-07T10:04:05.050Z,14.85
2022-08-07T10:06:56.839Z,15.95
2022-08-07T10:10:12.113Z,13.38
2022-08-07T10:13:29.724Z,16.08
2022-08-07T10:16:22.106Z,11.75
2022-08-07T10:19:22.336Z,14.48
2022-08-07T10:22:15.600Z,15.30
2022-08-07T10:25:04.889Z,16.90
2022-08-07T10:27:51.322Z,16.58
2022-08-07T10:30:26.384Z,17.17
2022-08-07T10:33:23.596Z,13.63
2022-08-07T10:36:29.917Z,15.85
2022-08-07T10:39:04.499Z,16.77
2022-08-07T10:41:46.268Z,15.73
2022-08-07T10:44:28.852Z,13.75
2022-08-07T10:47:18.959Z,15.75
2022-08-07T10:50:03.651Z,15.52
2022-08-07T10:55:27.099Z,14.15
2022-08-07T10:58:17.977Z,15.13
2022-08-07T11:01:17.773Z,15.00
2022-08-07T11:04:11.178Z,14.88
2022-08-07T11:07:01.343Z,16.45
2022-08-07T11:12:32.064Z,14.98
2022-08-07T11:15:04.271Z,15.45
2022-08-07T11:17:49.548Z,14.95
2022-08-07T11:20:22.402Z,14.10
2022-08-07T11:23:01.456Z,19.02
2022-08-07T11:25:36.181Z,14.60
2022-08-07T11:28:16.610Z,17.48
2022-08-07T11:30:53.451Z,17.00
2022-08-07T11:33:59.770Z,17.08
2022-08-07T11:36:43.833Z,17.27
2022-08-07T11:39:24.105Z,17.50
2022-08-07T11:42:01.813Z,14.70
2022-08-07T11:44:52.065Z,17.10
2022-08-07T11:47:38.999Z,17.60
2022-08-07T11:50:44.710Z,16.65
2022-08-07T11:53:37.178Z,18.05
2022-08-07T11:56:26.366Z,15.20
2022-08-07T12:00:07.996Z,17.52
2022-08-07T12:02:03.231Z,17.00
2022-08-07T12:04:52.531Z,17.23
2022-08-07T12:07:27.260Z,16.92
2022-08-07T12:10:05.610Z,18.98
2022-08-07T12:12:39.845Z,18.52
2022-08-07T12:15:35.432Z,15.57
2022-08-07T12:18:12.958Z,21.33
2022-08-07T12:20:49.111Z,20.27
2022-08-07T12:24:07.168Z,17.45
2022-08-07T12:26:46.191Z,18.10
2022-08-07T12:29:20.436Z,19.27
2022-08-07T12:32:14.440Z,18.95
2022-08-07T12:34:49.518Z,19.70
2022-08-07T12:37:28.589Z,19.08
2022-08-07T12:40:43.997Z,19.67
2022-08-07T12:43:10.255Z,18.70
2022-08-07T12:45:45.745Z,19.48
2022-08-07T12:48:41.580Z,17.63
2022-08-07T12:51:21.202Z,17.95
2022-08-07T12:54:02.940Z,19.90
2022-08-07T12:56:55.108Z,19.55
2022-08-07T12:59:33.184Z,19.90
2022-08-07T13:02:40.970Z,20.77
2022-08-07T13:06:02.521Z,20.55
2022-08-07T13:08:29.488Z,20.65
2022-08-07T13:11:08.720Z,17.35
2022-08-07T13:13:50.215Z,19.58
2022-08-07T13:16:27.135Z,16.45
2022-08-07T13:19:11.521Z,17.85
2022-08-07T13:22:01.977Z,20.90
2022-08-07T13:24:43.975Z,21.25
2022-08-07T13:27:33.532Z,15.07
2022-08-07T13:30:18.886Z,17.42
2022-08-07T13:33:16.487Z,19.25
2022-08-07T13:36:05.384Z,17.67
2022-08-07T13:38:42.225Z,19.35
2022-08-07T13:41:21.385Z,21.05
2022-08-07T13:43:55.913Z,18.23
2022-08-07T13:46:33.773Z,18.25
2022-08-07T13:49:19.763Z,19.05
2022-08-07T13:52:04.434Z,19.30
2022-08-07T13:54:35.158Z,19.55
2022-08-07T13:57:04.450Z,18.48
2022-08-07T13:59:36.811Z,21.38
2022-08-07T14:02:12.820Z,20.10
2022-08-07T14:04:50.241Z,17.98
2022-08-07T14:07:24.649Z,19.88
2022-08-07T14:10:01.422Z,20.73
2022-08-07T14:12:54.958Z,20.05
2022-08-07T14:15:35.075Z,19.58
2022-08-07T14:18:15.605Z,28.35
2022-08-07T14:21:07.977Z,21.38
2022-08-07T14:24:00.109Z,23.70
2022-08-07T14:26:32.170Z,29.60
2022-08-07T14:29:10.413Z,26.73
2022-08-07T14:31:56.315Z,22.58
2022-08-07T14:34:30.905Z,26.33
2022-08-07T14:37:02.961Z,23.55
2022-08-07T14:40:17.391Z,25.80
2022-08-07T14:42:26.012Z,24.75
2022-08-07T14:44:59.727Z,21.70
2022-08-07T14:47:33.847Z,25.77
2022-08-07T14:50:06.790Z,23.08
2022-08-07T14:52:39.637Z,24.38
2022-08-07T14:55:10.252Z,23.45
2022-08-07T14:57:54.735Z,23.30
2022-08-07T15:00:31.049Z,23.45
2022-08-07T15:02:59.555Z,22.60
2022-08-07T15:05:30.333Z,24.92
2022-08-07T15:08:03.920Z,25.45
2022-08-07T15:10:32.434Z,24.63
2022-08-07T15:13:11.479Z,27.42
2022-08-07T15:21:08.214Z,25.85
2022-08-07T15:25:02.434Z,24.00
2022-08-07T15:26:36.665Z,27.35
2022-08-07T15:32:02.718Z,23.92
2022-08-07T15:34:36.701Z,25.98
2022-08-07T15:37:07.789Z,27.73
2022-08-07T15:39:56.640Z,28.45
2022-08-07T15:42:56.004Z,25.58
2022-08-07T15:48:26.661Z,24.90
2022-08-07T15:53:56.716Z,27.83
2022-08-07T15:56:33.378Z,32.25
2022-08-07T15:59:04.614Z,29.98
2022-08-07T16:01:35.551Z,29.55
2022-08-07T16:04:14.921Z,34.42
2022-08-07T16:06:49.611Z,29.42
2022-08-07T16:09:23.579Z,31.25
2022-08-07T16:12:28.610Z,28.67
2022-08-07T16:15:57.523Z,30.65
2022-08-07T16:18:49.314Z,27.67
2022-08-07T16:22:01.168Z,33.00
2022-08-07T16:24:03.412Z,30.55
2022-08-07T16:26:59.599Z,27.58
2022-08-07T16:30:11.263Z,27.77
2022-08-07T16:34:02.436Z,24.55
2022-08-07T16:36:19.738Z,30.00
2022-08-07T16:39:03.689Z,30.92
2022-08-07T16:42:00.353Z,26.15
2022-08-07T16:45:14.242Z,27.33
2022-08-07T16:47:56.642Z,27.33
2022-08-07T16:51:20.348Z,29.80
2022-08-07T16:54:08.742Z,33.00
2022-08-07T16:57:01.049Z,31.95
2022-08-07T16:59:46.810Z,32.33
2022-08-07T17:02:51.073Z,31.60
2022-08-07T17:06:19.636Z,30.23
2022-08-07T17:09:04.359Z,30.65
2022-08-07T17:12:04.815Z,29.90
2022-08-07T17:14:37.863Z,30.90
2022-08-07T17:17:14.345Z,29.65
2022-08-07T17:20:02.680Z,31.05
2022-08-07T17:22:38.099Z,31.40
2022-08-07T17:25:16.406Z,28.50
2022-08-07T17:27:59.476Z,26.50
2022-08-07T17:30:35.561Z,28.67
2022-08-07T17:34:09.022Z,27.92
2022-08-07T17:36:13.661Z,27.55
2022-08-07T17:38:54.680Z,26.77
2022-08-07T17:42:04.479Z,33.50
2022-08-07T17:44:41.503Z,29.97
2022-08-07T17:47:17.421Z,30.02
2022-08-07T17:50:19.125Z,29.15
2022-08-07T17:52:59.635Z,28.45
2022-08-07T17:55:54.834Z,28.25
2022-08-07T17:58:31.048Z,29.00
2022-08-07T18:01:02.913Z,29.13
2022-08-07T18:04:07.756Z,30.80
2022-08-07T18:06:43.180Z,30.20
2022-08-07T18:09:18.943Z,28.05
2022-08-07T18:12:28.010Z,27.25
2022-08-07T18:15:08.468Z,27.42
2022-08-07T18:18:47.600Z,30.40
2022-08-07T18:21:08.440Z,28.35
2022-08-07T18:23:50.600Z,29.75
2022-08-07T18:26:24.935Z,30.23
2022-08-07T18:30:04.604Z,30.25
2022-08-07T18:32:12.955Z,27.95
2022-08-07T18:35:05.263Z,30.45
2022-08-07T18:38:55.689Z,34.33
2022-08-07T18:41:07.895Z,29.35
2022-08-07T18:43:49.124Z,32.08
2022-08-07T18:46:27.835Z,30.35
2022-08-07T18:50:29.927Z,31.17
2022-08-07T18:52:38.729Z,33.33
2022-08-07T18:55:41.154Z,29.33
2022-08-07T18:58:13.023Z,34.75
2022-08-07T19:00:55.025Z,34.72
2022-08-07T19:03:38.960Z,32.60
2022-08-07T19:06:16.157Z,36.28
2022-08-07T19:08:50.308Z,34.22
2022-08-07T19:11:36.339Z,33.90
2022-08-07T19:14:17.361Z,33.08
2022-08-07T19:17:05.738Z,31.35
2022-08-07T19:19:50.444Z,31.60
2022-08-07T19:22:31.292Z,33.90
2022-08-07T19:25:05.745Z,29.55
2022-08-07T19:28:29.951Z,32.55
2022-08-07T19:31:05.748Z,31.13
2022-08-07T19:33:33.571Z,30.92
2022-08-07T19:36:04.577Z,30.10
2022-08-07T19:38:35.367Z,50.90
2022-08-07T19:41:39.195Z,52.72
2022-08-07T19:44:21.176Z,42.70
2022-08-07T19:49:57.233Z,33.92
2022-08-07T19:52:18.216Z,27.02
2022-08-07T19:54:56.583Z,35.83
2022-08-07T19:58:01.029Z,34.17
2022-08-07T20:00:28.201Z,30.65
2022-08-07T20:03:01.772Z,30.98
2022-08-07T20:05:59.657Z,28.23
2022-08-07T20:08:23.684Z,27.23
2022-08-07T20:10:56.294Z,27.85
2022-08-07T20:13:35.066Z,29.83
2022-08-07T20:16:06.090Z,28.45
2022-08-07T20:18:35.044Z,27.65
2022-08-07T20:21:20.980Z,27.85
2022-08-07T20:23:54.903Z,27.33
2022-08-07T20:26:29.874Z,28.55
2022-08-07T20:29:10.171Z,27.80
2022-08-07T20:31:47.906Z,27.55
2022-08-07T20:34:40.021Z,31.77
2022-08-07T20:37:10.744Z,30.15
2022-08-07T20:40:04.021Z,28.70
2022-08-07T20:42:33.613Z,29.50
2022-08-07T20:45:02.321Z,29.45
2022-08-07T20:47:56.082Z,30.90
2022-08-07T20:50:24.335Z,30.50
2022-08-07T20:52:52.817Z,31.00
2022-08-07T20:55:23.648Z,28.42
2022-08-07T20:58:02.913Z,30.02
2022-08-07T21:00:39.216Z,31.70
2022-08-07T21:03:14.224Z,29.58
2022-08-07T21:05:54.931Z,29.45
2022-08-07T21:08:38.056Z,30.02
2022-08-07T21:11:12.418Z,31.38
2022-08-07T21:14:29.357Z,28.67
2022-08-07T21:16:46.752Z,34.05
2022-08-07T21:19:32.258Z,29.88
2022-08-07T21:22:19.051Z,33.20
2022-08-07T21:25:04.575Z,31.08
2022-08-07T21:27:53.820Z,34.40
2022-08-07T21:30:29.983Z,31.23
2022-08-07T21:33:09.187Z,31.00
2022-08-07T21:36:04.978Z,32.00
2022-08-07T21:38:44.158Z,32.53
2022-08-07T21:41:19.853Z,33.13
2022-08-07T21:43:56.915Z,33.13
2022-08-07T21:46:31.837Z,36.08
2022-08-07T21:49:15.080Z,35.85
2022-08-07T21:51:57.796Z,36.67
2022-08-07T21:54:38.395Z,36.45
2022-08-07T21:57:44.439Z,39.75
2022-08-07T22:00:22.066Z,33.42
2022-08-07T22:02:59.252Z,34.42
2022-08-07T22:05:45.984Z,36.92
2022-08-07T22:08:20.148Z,33.38
2022-08-07T22:10:51.009Z,35.88
2022-08-07T22:13:24.000Z,35.00
2022-08-07T22:16:38.583Z,34.25
2022-08-07T22:18:58.283Z,31.75
2022-08-07T22:22:05.198Z,34.60
2022-08-07T22:24:33.729Z,39.95
2022-08-07T22:27:06.577Z,37.10
2022-08-07T22:29:48.230Z,34.53
2022-08-07T22:32:24.579Z,35.95
2022-08-07T22:34:55.335Z,35.72
2022-08-07T22:38:02.713Z,37.90
2022-08-07T22:40:28.806Z,38.90
2022-08-07T22:43:03.168Z,36.83
2022-08-07T22:46:40.725Z,35.63
2022-08-07T22:48:55.372Z,33.80
2022-08-07T22:51:51.876Z,41.93
2022-08-07T22:54:47.959Z,35.58
2022-08-07T22:57:44.799Z,35.70
2022-08-07T23:00:18.012Z,33.15
2022-08-07T23:03:09.077Z,31.35
2022-08-07T23:06:06.760Z,32.38
2022-08-07T23:08:58.493Z,31.38
2022-08-07T23:11:59.452Z,31.40
2022-08-07T23:14:40.554Z,31.88
2022-08-07T23:17:35.249Z,31.70
2022-08-07T23:20:40.461Z,31.63
2022-08-07T23:24:05.533Z,30.23
2022-08-07T23:26:25.287Z,35.00
2022-08-07T23:30:35.597Z,35.55
2022-08-07T23:34:24.041Z,32.47
2022-08-07T23:35:22.750Z,32.83
2022-08-07T23:38:42.374Z,32.80
2022-08-07T23:41:33.523Z,38.42
2022-08-07T23:44:16.907Z,36.15
2022-08-07T23:47:07.354Z,37.33
2022-08-07T23:50:07.493Z,35.38
2022-08-07T23:52:58.764Z,36.70
2022-08-07T23:55:53.388Z,33.88
2022-08-07T23:58:37.304Z,31.42
